Depesza METAR lotniska Warszawa-Okęcie


METAR = EPWA 061800Z 16009KT CAVOK 03/02 Q1018 NOSIG

STACJA......... EPWA - Warszawa-Okęcie (WAW)
POMIAR......... Sat Feb 6, 19:00 CET
TERAZ.......... Sat Feb 6, 19:17 CET
CZAS........... 17 min temu
WIATR.......... południowo południowo-wschodni (SSE) z prędkością 17 km/h
WIDZIALNOŚĆ.... powyżej 10 kilometrów
CHMURY......... bezchmurne niebo
TEMPERATURA.... 3°C
T.PUNKTU ROSY.. 2°C
WILGOTNOŚĆ..... 93%
T.ODCZUWALNA... -1°C
CIŚNIENIE...... 1018 hPa
PROGNOZA....... bez nagłych zmian w ciągu 2h

Depesza METAR lotniska Kraków-Balice


METAR = EPKK 061800Z 01002KT 3500 BR NSC 02/01 Q1019

STACJA......... EPKK - Kraków-Balice (KRK)
POMIAR......... Sat Feb 6, 19:00 CET
TERAZ.......... Sat Feb 6, 19:17 CET
CZAS........... 17 min temu
WIATR.......... północny (N) z prędkością 4 km/h
WIDZIALNOŚĆ.... 3500 metrów
WARUNKI........ zamglenie 
CHMURY......... brak istotnych chmur
TEMPERATURA.... 2°C
T.PUNKTU ROSY.. 1°C
WILGOTNOŚĆ..... 93%
CIŚNIENIE...... 1019 hPa

Depesza METAR lotniska Łódź-Lublinek


METAR = EPLL 061800Z 16006KT CAVOK 06/03 Q1017

STACJA......... EPLL - Łódź-Lublinek (LCJ)
POMIAR......... Sat Feb 6, 19:00 CET
TERAZ.......... Sat Feb 6, 19:17 CET
CZAS........... 17 min temu
WIATR.......... południowo południowo-wschodni (SSE) z prędkością 11 km/h
WIDZIALNOŚĆ.... powyżej 10 kilometrów
CHMURY......... bezchmurne niebo
TEMPERATURA.... 6°C
T.PUNKTU ROSY.. 3°C
WILGOTNOŚĆ..... 81%
T.ODCZUWALNA... 4°C
CIŚNIENIE...... 1017 hPa

Depesza METAR lotniska Wrocław-Strachowice


METAR = EPWR 061800Z 19005KT 160V220 CAVOK 09/03 Q1016

STACJA......... EPWR - Wrocław-Strachowice (WRO)
POMIAR......... Sat Feb 6, 19:00 CET
TERAZ.......... Sat Feb 6, 19:17 CET
CZAS........... 17 min temu
WIATR.......... południowy (S) z prędkością 9 km/h
WIDZIALNOŚĆ.... powyżej 10 kilometrów
CHMURY......... bezchmurne niebo
TEMPERATURA.... 9°C
T.PUNKTU ROSY.. 3°C
WILGOTNOŚĆ..... 66%
T.ODCZUWALNA... 7°C
CIŚNIENIE...... 1016 hPa

Depesza METAR lotniska Katowice-Pyrzowice


METAR = EPKT 061800Z 15005KT CAVOK 04/01 Q1018

STACJA......... EPKT - Katowice-Pyrzowice (KTW)
POMIAR......... Sat Feb 6, 19:00 CET
TERAZ.......... Sat Feb 6, 19:17 CET
CZAS........... 17 min temu
WIATR.......... południowo południowo-wschodni (SSE) z prędkością 9 km/h
WIDZIALNOŚĆ.... powyżej 10 kilometrów
CHMURY......... bezchmurne niebo
TEMPERATURA.... 4°C
T.PUNKTU ROSY.. 1°C
WILGOTNOŚĆ..... 81%
T.ODCZUWALNA... 2°C
CIŚNIENIE...... 1018 hPa

Depesza METAR lotniska Gdańsk


METAR = EPGD 061800Z 18005KT 130V230 4000 FEW009 BKN011 06/05 Q1012

STACJA......... EPGD - Gdańsk im. Lecha Wałęsy (GDN)
POMIAR......... Sat Feb 6, 19:00 CET
TERAZ.......... Sat Feb 6, 19:17 CET
CZAS........... 17 min temu
WIATR.......... południowy (S) z prędkością 9 km/h
WIDZIALNOŚĆ.... 4000 metrów
CHMURY......... zachmurzenie średnie (5/8-7/8)
TEMPERATURA.... 6°C
T.PUNKTU ROSY.. 5°C
WILGOTNOŚĆ..... 93%
T.ODCZUWALNA... 4°C
CIŚNIENIE...... 1012 hPa

Depesza METAR lotniska Poznań-Ławica


METAR = EPPO 061800Z 17009KT CAVOK 08/06 Q1013

STACJA......... EPPO - Poznań-Ławica (POZ)
POMIAR......... Sat Feb 6, 19:00 CET
TERAZ.......... Sat Feb 6, 19:17 CET
CZAS........... 17 min temu
WIATR.......... południowy (S) z prędkością 17 km/h
WIDZIALNOŚĆ.... powyżej 10 kilometrów
CHMURY......... bezchmurne niebo
TEMPERATURA.... 8°C
T.PUNKTU ROSY.. 6°C
WILGOTNOŚĆ..... 87%
T.ODCZUWALNA... 5°C
CIŚNIENIE...... 1013 hPa

Depesza METAR lotniska Rzeszów-Jasionka


METAR = EPRZ 061800Z 20009KT CAVOK 02/M02 Q1022

STACJA......... EPRZ - Rzeszów-Jasionka (RZE)
POMIAR......... Sat Feb 6, 19:00 CET
TERAZ.......... Sat Feb 6, 19:17 CET
CZAS........... 17 min temu
WIATR.......... południowo południowo-zachodni  (SSW) z prędkością 17 km/h
WIDZIALNOŚĆ.... powyżej 10 kilometrów
CHMURY......... bezchmurne niebo
TEMPERATURA.... 2°C
T.PUNKTU ROSY.. -2°C
WILGOTNOŚĆ..... 75%
T.ODCZUWALNA... -2°C
CIŚNIENIE...... 1022 hPa

Depesza METAR lotniska Szczecin-Goleniów


METAR = EPSC 061800Z 16010KT CAVOK 07/04 Q1010

STACJA......... EPSC - Szczecin-Goleniów (SZZ)
POMIAR......... Sat Feb 6, 19:00 CET
TERAZ.......... Sat Feb 6, 19:17 CET
CZAS........... 17 min temu
WIATR.......... południowo południowo-wschodni (SSE) z prędkością 19 km/h
WIDZIALNOŚĆ.... powyżej 10 kilometrów
CHMURY......... bezchmurne niebo
TEMPERATURA.... 7°C
T.PUNKTU ROSY.. 4°C
WILGOTNOŚĆ..... 81%
T.ODCZUWALNA... 4°C
CIŚNIENIE...... 1010 hPa

Depesza METAR lotniska Lublin-Świdnik


METAR = EPLB 061730Z 14002KT CAVOK 01/M01 Q1022 =

STACJA......... EPLB - Lublin-Świdnik (LUZ)
POMIAR......... Sat Feb 6, 18:30 CET
TERAZ.......... Sat Feb 6, 19:17 CET
CZAS........... 47 min temu
WIATR.......... południowo wschodni (SE) z prędkością 4 km/h
WIDZIALNOŚĆ.... powyżej 10 kilometrów
CHMURY......... bezchmurne niebo
TEMPERATURA.... 1°C
T.PUNKTU ROSY.. -1°C
WILGOTNOŚĆ..... 87%
CIŚNIENIE...... 1022 hPa

Depesza METAR lotniska Bydgoszcz-Szwederowo


METAR = EPBY 061730Z 16004KT 130V210 CAVOK 08/05 Q1014 =

STACJA......... EPBY - Bydgoszcz-Szwederowo (BZG)
POMIAR......... Sat Feb 6, 18:30 CET
TERAZ.......... Sat Feb 6, 19:17 CET
CZAS........... 47 min temu
WIATR.......... południowo południowo-wschodni (SSE) z prędkością 7 km/h
WIDZIALNOŚĆ.... powyżej 10 kilometrów
CHMURY......... bezchmurne niebo
TEMPERATURA.... 8°C
T.PUNKTU ROSY.. 5°C
WILGOTNOŚĆ..... 82%
T.ODCZUWALNA... 7°C
CIŚNIENIE...... 1014 hPa

Depesza METAR lotniska Zielona Góra-Babimost


METAR = EPZG 061730Z 14004KT 110V170 CAVOK 08/05 Q1013 =

STACJA......... EPZG - Zielona Góra-Babimost (IEG)
POMIAR......... Sat Feb 6, 18:30 CET
TERAZ.......... Sat Feb 6, 19:17 CET
CZAS........... 47 min temu
WIATR.......... południowo wschodni (SE) z prędkością 7 km/h
WIDZIALNOŚĆ.... powyżej 10 kilometrów
CHMURY......... bezchmurne niebo
TEMPERATURA.... 8°C
T.PUNKTU ROSY.. 5°C
WILGOTNOŚĆ..... 82%
T.ODCZUWALNA... 7°C
CIŚNIENIE...... 1013 hPa

Sprawdź też: prognoza pogody dla miast w Polsce!